createdAt,value
2019-02-20T00:01:43.294Z,75.95
2019-02-20T00:04:11.505Z,75.89
2019-02-20T00:06:39.683Z,75.98
2019-02-20T00:09:07.882Z,76.10
2019-02-20T00:11:36.093Z,76.04
2019-02-20T00:14:04.320Z,76.05
2019-02-20T00:16:32.507Z,75.79
2019-02-20T00:19:00.730Z,75.99
2019-02-20T00:21:28.926Z,76.06
2019-02-20T00:23:57.121Z,76.18
2019-02-20T00:26:25.300Z,76.04
2019-02-20T00:28:53.503Z,76.06
2019-02-20T00:31:21.697Z,76.07
2019-02-20T00:33:49.892Z,76.06
2019-02-20T00:36:18.075Z,75.98
2019-02-20T00:38:46.303Z,75.99
2019-02-20T00:41:14.485Z,76.13
2019-02-20T00:43:44.325Z,76.15
2019-02-20T00:46:14.180Z,76.19
2019-02-20T00:48:46.937Z,76.01
2019-02-20T00:51:19.424Z,75.88
2019-02-20T00:53:49.286Z,75.99
2019-02-20T00:56:17.500Z,75.92
2019-02-20T00:58:45.702Z,75.86
2019-02-20T01:01:13.892Z,75.73
2019-02-20T01:03:42.090Z,75.72
2019-02-20T01:06:10.287Z,75.50
2019-02-20T01:08:38.487Z,75.73
2019-02-20T01:11:06.671Z,75.72
2019-02-20T01:13:34.859Z,75.57
2019-02-20T01:16:03.054Z,75.45
2019-02-20T01:18:31.242Z,75.46
2019-02-20T01:20:59.435Z,75.35
2019-02-20T01:23:27.623Z,75.22
2019-02-20T01:25:55.813Z,75.37
2019-02-20T01:28:24.018Z,75.31
2019-02-20T01:30:52.214Z,75.21
2019-02-20T01:33:20.421Z,75.23
2019-02-20T01:35:48.621Z,75.25
2019-02-20T01:38:16.804Z,75.01
2019-02-20T01:40:45.026Z,75.01
2019-02-20T01:43:13.210Z,75.01
2019-02-20T01:45:41.402Z,74.79
2019-02-20T01:48:09.607Z,74.81
2019-02-20T01:50:37.848Z,74.62
2019-02-20T01:53:10.347Z,74.36
2019-02-20T01:55:35.973Z,74.56
2019-02-20T01:58:04.161Z,74.57
2019-02-20T02:00:32.376Z,74.68
2019-02-20T02:03:00.590Z,74.71
2019-02-20T02:05:28.796Z,74.58
2019-02-20T02:07:56.973Z,74.54
2019-02-20T02:10:25.172Z,74.37
2019-02-20T02:12:53.381Z,74.37
2019-02-20T02:15:21.598Z,74.60
2019-02-20T02:17:49.790Z,74.64
2019-02-20T02:20:18.009Z,74.42
2019-02-20T02:22:46.189Z,74.54
2019-02-20T02:25:14.410Z,74.62
2019-02-20T02:27:42.582Z,74.49
2019-02-20T02:30:12.924Z,74.70
2019-02-20T02:32:41.132Z,74.68
2019-02-20T02:35:09.326Z,74.63
2019-02-20T02:37:37.529Z,74.61
2019-02-20T02:40:06.570Z,74.57
2019-02-20T02:42:34.761Z,74.41
2019-02-20T02:45:02.966Z,74.21
2019-02-20T02:47:31.171Z,74.33
2019-02-20T02:49:59.363Z,74.33
2019-02-20T02:52:27.585Z,74.45
2019-02-20T02:54:55.770Z,74.44
2019-02-20T02:57:23.970Z,74.32
2019-02-20T02:59:52.156Z,74.27
2019-02-20T03:02:20.356Z,74.27
2019-02-20T03:04:48.528Z,74.07
2019-02-20T03:07:16.726Z,73.86
2019-02-20T03:09:44.911Z,73.70
2019-02-20T03:12:13.131Z,73.50
2019-02-20T03:14:41.319Z,73.52
2019-02-20T03:17:09.509Z,73.41
2019-02-20T03:19:37.690Z,73.53
2019-02-20T03:22:05.917Z,73.42
2019-02-20T03:24:34.114Z,73.12
2019-02-20T03:27:02.314Z,73.10
2019-02-20T03:29:30.499Z,73.14
2019-02-20T03:31:58.836Z,72.91
2019-02-20T03:34:26.973Z,73.21
2019-02-20T03:36:55.180Z,73.09
2019-02-20T03:39:23.369Z,73.01
2019-02-20T03:41:51.567Z,72.93
2019-02-20T03:44:19.780Z,73.35
2019-02-20T03:46:47.999Z,73.36
2019-02-20T03:49:16.188Z,73.43
2019-02-20T03:51:44.404Z,73.42
2019-02-20T03:54:12.601Z,73.45
2019-02-20T03:56:40.801Z,73.45
2019-02-20T03:59:08.993Z,73.70
2019-02-20T04:01:37.200Z,73.80
2019-02-20T04:04:05.417Z,73.96
2019-02-20T04:06:33.616Z,73.85
2019-02-20T04:09:01.804Z,73.93
2019-02-20T04:11:30.022Z,74.00
2019-02-20T04:13:58.226Z,74.04
2019-02-20T04:16:26.412Z,74.02
2019-02-20T04:18:54.658Z,73.97
2019-02-20T04:21:22.811Z,73.88
2019-02-20T04:24:01.594Z,73.95
2019-02-20T04:26:20.949Z,73.98
2019-02-20T04:28:49.163Z,73.96
2019-02-20T04:31:17.342Z,73.83
2019-02-20T04:33:45.544Z,73.88
2019-02-20T04:36:13.733Z,73.94
2019-02-20T04:38:41.934Z,73.95
2019-02-20T04:41:10.135Z,73.91
2019-02-20T04:43:38.333Z,73.93
2019-02-20T04:46:06.518Z,73.93
2019-02-20T04:48:34.725Z,73.81
2019-02-20T04:51:02.918Z,73.71
2019-02-20T04:53:31.139Z,73.98
2019-02-20T04:55:59.352Z,74.05
2019-02-20T04:58:27.577Z,73.89
2019-02-20T05:00:55.790Z,73.92
2019-02-20T05:03:24.003Z,73.92
2019-02-20T05:05:52.211Z,73.96
2019-02-20T05:08:20.438Z,73.76
2019-02-20T05:10:48.642Z,73.82
2019-02-20T05:13:16.846Z,74.04
2019-02-20T05:15:45.049Z,74.12
2019-02-20T05:18:13.258Z,74.10
2019-02-20T05:20:41.436Z,74.08
2019-02-20T05:23:09.666Z,74.16
2019-02-20T05:25:37.855Z,74.18
2019-02-20T05:28:06.054Z,74.25
2019-02-20T05:30:34.280Z,74.29
2019-02-20T05:33:02.483Z,74.30
2019-02-20T05:35:30.688Z,74.37
2019-02-20T05:37:58.895Z,74.36
2019-02-20T05:40:27.086Z,74.46
2019-02-20T05:42:55.329Z,74.57
2019-02-20T05:45:23.511Z,74.51
2019-02-20T05:47:51.722Z,74.45
2019-02-20T05:50:19.913Z,74.37
2019-02-20T05:52:48.101Z,74.56
2019-02-20T05:55:16.323Z,74.68
2019-02-20T05:57:44.518Z,74.74
2019-02-20T06:00:13.751Z,74.78
2019-02-20T06:02:41.940Z,74.74
2019-02-20T06:05:10.127Z,74.63
2019-02-20T06:07:38.412Z,74.72
2019-02-20T06:10:08.653Z,74.81
2019-02-20T06:12:36.845Z,74.98
2019-02-20T06:15:07.220Z,75.00
2019-02-20T06:17:35.427Z,75.29
2019-02-20T06:20:05.346Z,75.29
2019-02-20T06:22:33.539Z,75.37
2019-02-20T06:25:01.743Z,75.41
2019-02-20T06:27:30.004Z,75.33
2019-02-20T06:29:58.161Z,75.55
2019-02-20T06:32:26.352Z,75.43
2019-02-20T06:34:54.555Z,75.45
2019-02-20T06:37:22.766Z,75.46
2019-02-20T06:39:50.980Z,75.45
2019-02-20T06:42:19.179Z,75.35
2019-02-20T06:44:47.380Z,75.45
2019-02-20T06:47:15.577Z,75.53
2019-02-20T06:49:43.781Z,75.31
2019-02-20T06:52:11.972Z,75.57
2019-02-20T06:54:40.198Z,75.74
2019-02-20T06:57:08.398Z,75.54
2019-02-20T06:59:36.627Z,75.49
2019-02-20T07:02:04.811Z,75.46
2019-02-20T07:04:33.034Z,75.34
2019-02-20T07:07:04.483Z,75.36
2019-02-20T07:09:52.538Z,75.70
2019-02-20T07:12:38.383Z,75.70
2019-02-20T07:15:15.378Z,75.59
2019-02-20T07:18:20.033Z,75.55
2019-02-20T07:21:07.784Z,75.38
2019-02-20T07:23:54.119Z,75.32
2019-02-20T07:26:46.650Z,75.21
2019-02-20T07:29:36.308Z,75.22
2019-02-20T07:32:04.509Z,75.12
2019-02-20T07:34:32.710Z,75.27
2019-02-20T07:37:00.899Z,75.25
2019-02-20T07:39:29.085Z,75.21
2019-02-20T07:41:57.297Z,75.28
2019-02-20T07:44:25.521Z,75.44
2019-02-20T07:46:53.724Z,75.46
2019-02-20T07:49:21.910Z,75.49
2019-02-20T07:51:50.119Z,75.53
2019-02-20T07:54:18.331Z,78.28
2019-02-20T07:56:46.532Z,79.58
2019-02-20T07:59:14.744Z,80.84
2019-02-20T08:01:42.923Z,82.34
2019-02-20T08:04:11.117Z,78.86
2019-02-20T08:06:39.356Z,76.23
2019-02-20T08:09:07.546Z,75.58
2019-02-20T08:11:35.754Z,75.79
2019-02-20T08:14:03.949Z,75.72
2019-02-20T08:16:32.156Z,76.28
2019-02-20T08:19:00.350Z,76.30
2019-02-20T08:21:28.561Z,74.47
2019-02-20T08:23:56.762Z,75.48
2019-02-20T08:26:24.972Z,75.22
2019-02-20T08:28:53.169Z,75.50
2019-02-20T08:31:21.377Z,74.81
2019-02-20T08:33:49.652Z,71.33
2019-02-20T08:36:17.864Z,75.26
2019-02-20T08:38:46.051Z,74.72
2019-02-20T08:41:14.265Z,72.86
2019-02-20T08:43:42.455Z,72.45
2019-02-20T08:46:10.660Z,73.99
2019-02-20T08:48:38.878Z,71.90
2019-02-20T08:51:07.079Z,73.07
2019-02-20T08:53:35.315Z,72.90
2019-02-20T08:56:03.581Z,71.86
2019-02-20T08:58:31.801Z,70.83
2019-02-20T09:01:00.005Z,69.52
2019-02-20T09:03:28.224Z,71.41
2019-02-20T09:05:56.437Z,72.59
2019-02-20T09:08:24.626Z,70.83
2019-02-20T09:10:52.815Z,72.39
2019-02-20T09:13:21.041Z,72.93
2019-02-20T09:15:49.262Z,71.57
2019-02-20T09:18:17.472Z,71.06
2019-02-20T09:20:45.700Z,69.28
2019-02-20T09:23:13.910Z,70.21
2019-02-20T09:25:42.117Z,70.76
2019-02-20T09:28:10.350Z,70.53
2019-02-20T09:30:38.574Z,70.46
2019-02-20T09:33:06.778Z,70.45
2019-02-20T09:35:34.973Z,69.22
2019-02-20T09:38:03.207Z,69.76
2019-02-20T09:40:31.406Z,69.56
2019-02-20T09:42:59.630Z,69.92
2019-02-20T09:45:27.825Z,69.96
2019-02-20T09:47:56.038Z,69.87
2019-02-20T09:50:24.240Z,70.84
2019-02-20T09:52:52.995Z,69.83
2019-02-20T09:55:21.215Z,68.20
2019-02-20T09:57:49.404Z,68.82
2019-02-20T10:00:19.611Z,68.71
2019-02-20T10:02:47.829Z,68.57
2019-02-20T10:05:16.041Z,67.61
2019-02-20T10:07:44.260Z,68.12
2019-02-20T10:10:12.943Z,68.72
2019-02-20T10:12:41.175Z,68.25
2019-02-20T10:15:17.536Z,68.76
2019-02-20T10:17:45.741Z,68.56
2019-02-20T10:20:13.978Z,68.34
2019-02-20T10:22:42.190Z,68.09
2019-02-20T10:25:12.710Z,68.75
2019-02-20T10:27:40.885Z,67.44
2019-02-20T10:30:15.204Z,67.65
2019-02-20T10:32:43.440Z,67.61
2019-02-20T10:35:11.712Z,67.14
2019-02-20T10:37:39.912Z,67.06
2019-02-20T10:40:09.656Z,67.81
2019-02-20T10:42:37.885Z,67.91
2019-02-20T10:45:08.623Z,67.87
2019-02-20T10:47:36.826Z,66.87
2019-02-20T10:50:08.120Z,66.05
2019-02-20T10:52:36.317Z,66.37
2019-02-20T10:55:06.361Z,66.39
2019-02-20T10:57:34.579Z,66.26
2019-02-20T11:00:03.438Z,66.36
2019-02-20T11:02:31.655Z,66.83
2019-02-20T11:04:59.873Z,66.58
2019-02-20T11:07:28.072Z,66.87
2019-02-20T11:09:56.301Z,66.94
2019-02-20T11:12:24.498Z,66.98
2019-02-20T11:14:52.739Z,67.14
2019-02-20T11:17:20.937Z,67.14
2019-02-20T11:19:49.168Z,67.43
2019-02-20T11:22:17.385Z,67.73
2019-02-20T11:24:45.637Z,67.64
2019-02-20T11:27:13.857Z,67.74
2019-02-20T11:29:42.049Z,67.64
2019-02-20T11:32:10.263Z,67.78
2019-02-20T11:34:38.462Z,67.55
2019-02-20T11:37:06.663Z,67.67
2019-02-20T11:39:37.710Z,67.22
2019-02-20T11:42:04.821Z,67.57
2019-02-20T11:44:33.012Z,67.80
2019-02-20T11:47:01.218Z,67.72
2019-02-20T11:49:29.418Z,67.46
2019-02-20T11:51:57.632Z,67.08
2019-02-20T11:54:25.822Z,67.53
2019-02-20T11:56:54.028Z,67.81
2019-02-20T11:59:22.228Z,67.81
2019-02-20T12:01:50.619Z,67.59
2019-02-20T12:04:18.817Z,67.83
2019-02-20T12:06:47.026Z,67.89
2019-02-20T12:09:15.225Z,67.93
2019-02-20T12:11:43.453Z,67.60
2019-02-20T12:14:11.668Z,67.65
2019-02-20T12:16:39.868Z,67.67
2019-02-20T12:19:08.886Z,67.72
2019-02-20T12:21:37.090Z,67.34
2019-02-20T12:24:05.290Z,67.28
2019-02-20T12:26:35.318Z,67.66
2019-02-20T12:29:03.408Z,67.13
2019-02-20T12:31:31.614Z,67.20
2019-02-20T12:34:01.565Z,67.42
2019-02-20T12:36:29.909Z,66.83
2019-02-20T12:38:58.104Z,66.87
2019-02-20T12:41:26.305Z,66.51
2019-02-20T12:43:54.530Z,66.59
2019-02-20T12:46:22.738Z,66.44
2019-02-20T12:48:50.960Z,66.23
2019-02-20T12:51:19.152Z,66.17
2019-02-20T12:53:47.367Z,66.19
2019-02-20T12:56:15.559Z,66.13
2019-02-20T12:58:43.756Z,66.12
2019-02-20T13:01:11.958Z,65.32
2019-02-20T13:03:40.183Z,65.35
2019-02-20T13:06:08.377Z,64.98
2019-02-20T13:08:36.582Z,64.83
2019-02-20T13:11:04.777Z,63.53
2019-02-20T13:13:32.984Z,64.00
2019-02-20T13:16:09.361Z,63.30
2019-02-20T13:18:31.144Z,63.02
2019-02-20T13:20:59.372Z,63.03
2019-02-20T13:23:27.562Z,62.87
2019-02-20T13:25:55.757Z,62.48
2019-02-20T13:28:23.960Z,62.84
2019-02-20T13:30:52.151Z,62.84
2019-02-20T13:33:20.408Z,62.99
2019-02-20T13:35:48.628Z,62.49
2019-02-20T13:38:16.818Z,62.31
2019-02-20T13:40:45.036Z,62.40
2019-02-20T13:43:13.245Z,62.34
2019-02-20T13:45:41.433Z,62.15
2019-02-20T13:48:09.642Z,61.84
2019-02-20T13:50:37.857Z,60.72
2019-02-20T13:53:06.066Z,61.54
2019-02-20T13:55:34.868Z,61.14
2019-02-20T13:58:03.180Z,60.49
2019-02-20T14:00:31.393Z,60.32
2019-02-20T14:02:59.626Z,60.60
2019-02-20T14:05:27.816Z,60.83
2019-02-20T14:07:56.050Z,60.34
2019-02-20T14:10:24.249Z,60.64
2019-02-20T14:12:52.452Z,60.48
2019-02-20T14:15:20.646Z,60.18
2019-02-20T14:17:48.861Z,59.98
2019-02-20T14:20:17.073Z,60.18
2019-02-20T14:22:45.960Z,59.88
2019-02-20T14:25:14.255Z,59.43
2019-02-20T14:27:42.486Z,59.17
2019-02-20T14:30:11.721Z,59.10
2019-02-20T14:32:39.936Z,58.92
2019-02-20T14:35:10.342Z,59.46
2019-02-20T14:37:39.408Z,59.73
2019-02-20T14:40:09.335Z,59.93
2019-02-20T14:42:37.671Z,60.06
2019-02-20T14:45:11.589Z,60.05
2019-02-20T14:47:39.804Z,59.85
2019-02-20T14:50:10.259Z,59.68
2019-02-20T14:52:38.728Z,59.48
2019-02-20T14:55:08.686Z,59.56
2019-02-20T14:57:36.889Z,59.09
2019-02-20T15:00:08.665Z,59.31
2019-02-20T15:02:36.903Z,59.16
2019-02-20T15:05:06.165Z,59.23
2019-02-20T15:07:34.750Z,59.55
2019-02-20T15:10:02.991Z,59.46
2019-02-20T15:12:31.224Z,59.69
2019-02-20T15:14:59.437Z,59.87
2019-02-20T15:17:27.646Z,59.72
2019-02-20T15:19:55.857Z,59.81
2019-02-20T15:22:24.049Z,59.92
2019-02-20T15:24:53.035Z,60.01
2019-02-20T15:27:28.464Z,60.03
2019-02-20T15:29:51.185Z,59.88
2019-02-20T15:32:19.389Z,59.84
2019-02-20T15:34:47.623Z,59.81
2019-02-20T15:37:15.830Z,59.73
2019-02-20T15:39:44.069Z,60.03
2019-02-20T15:42:12.381Z,59.80
2019-02-20T15:44:40.586Z,59.72
2019-02-20T15:47:08.801Z,60.14
2019-02-20T15:49:37.014Z,60.32
2019-02-20T15:52:05.219Z,60.38
2019-02-20T15:54:33.420Z,60.51
2019-02-20T15:57:01.618Z,60.57
2019-02-20T15:59:30.014Z,60.48
2019-02-20T16:01:58.211Z,60.69
2019-02-20T16:04:26.417Z,60.51
2019-02-20T16:06:54.622Z,60.45
2019-02-20T16:09:22.821Z,60.54
2019-02-20T16:11:51.042Z,60.65
2019-02-20T16:14:19.255Z,60.88
2019-02-20T16:16:47.761Z,60.89
2019-02-20T16:19:15.975Z,60.69
2019-02-20T16:21:44.192Z,60.71
2019-02-20T16:24:12.401Z,60.61
2019-02-20T16:26:40.609Z,60.70
2019-02-20T16:29:08.812Z,60.69
2019-02-20T16:31:37.030Z,60.73
2019-02-20T16:34:05.594Z,60.99
2019-02-20T16:36:33.804Z,60.85
2019-02-20T16:39:02.013Z,60.88
2019-02-20T16:41:30.242Z,61.48
2019-02-20T16:43:58.454Z,62.04
2019-02-20T16:46:28.386Z,62.29
2019-02-20T16:48:56.651Z,62.57
2019-02-20T16:51:24.884Z,62.48
2019-02-20T16:53:53.065Z,62.54
2019-02-20T16:56:21.267Z,62.65
2019-02-20T16:58:49.464Z,62.58
2019-02-20T17:01:17.667Z,62.47
2019-02-20T17:03:45.871Z,62.34
2019-02-20T17:06:14.088Z,62.19
2019-02-20T17:08:42.272Z,61.75
2019-02-20T17:11:10.487Z,61.65
2019-02-20T17:13:39.603Z,61.80
2019-02-20T17:16:07.862Z,61.52
2019-02-20T17:18:36.051Z,61.55
2019-02-20T17:21:04.272Z,61.57
2019-02-20T17:23:32.937Z,61.55
2019-02-20T17:26:01.155Z,61.54
2019-02-20T17:28:29.338Z,61.39
2019-02-20T17:30:57.543Z,61.26
2019-02-20T17:33:25.741Z,61.36
2019-02-20T17:35:53.943Z,61.01
2019-02-20T17:38:22.160Z,61.24
2019-02-20T17:40:50.739Z,60.95
2019-02-20T17:43:22.199Z,60.57
2019-02-20T17:45:52.148Z,60.46
2019-02-20T17:48:20.355Z,60.71
2019-02-20T17:50:48.624Z,61.11
2019-02-20T17:53:16.835Z,60.93
2019-02-20T17:55:45.427Z,61.02
2019-02-20T17:58:15.359Z,60.98
2019-02-20T18:00:43.945Z,60.96
2019-02-20T18:03:12.166Z,61.13
2019-02-20T18:05:40.327Z,60.95
2019-02-20T18:08:08.529Z,60.93
2019-02-20T18:10:38.454Z,60.95
2019-02-20T18:13:06.614Z,61.09
2019-02-20T18:15:34.804Z,60.80
2019-02-20T18:18:03.051Z,60.56
2019-02-20T18:20:31.242Z,60.24
2019-02-20T18:22:59.972Z,60.66
2019-02-20T18:25:28.224Z,60.69
2019-02-20T18:27:56.449Z,60.58
2019-02-20T18:30:24.644Z,60.66
2019-02-20T18:32:52.859Z,60.38
2019-02-20T18:35:21.068Z,60.53
2019-02-20T18:37:49.256Z,60.58
2019-02-20T18:40:17.921Z,60.61
2019-02-20T18:42:46.127Z,60.76
2019-02-20T18:45:17.229Z,60.76
2019-02-20T18:47:45.432Z,60.68
2019-02-20T18:50:14.761Z,60.74
2019-02-20T18:52:42.967Z,60.76
2019-02-20T18:55:12.591Z,60.93
2019-02-20T18:57:40.806Z,61.02
2019-02-20T19:00:14.830Z,60.91
2019-02-20T19:02:43.047Z,60.95
2019-02-20T19:05:11.524Z,60.98
2019-02-20T19:07:39.715Z,60.98
2019-02-20T19:10:26.175Z,61.04
2019-02-20T19:13:09.294Z,60.98
2019-02-20T19:15:49.529Z,60.82
2019-02-20T19:18:29.385Z,60.60
2019-02-20T19:21:00.854Z,60.70
2019-02-20T19:24:02.531Z,60.42
2019-02-20T19:26:36.900Z,60.63
2019-02-20T19:29:26.215Z,60.54
2019-02-20T19:32:09.567Z,60.57
2019-02-20T19:35:09.864Z,60.71
2019-02-20T19:38:05.911Z,60.51
2019-02-20T19:40:47.646Z,60.48
2019-02-20T19:43:33.817Z,60.45
2019-02-20T19:46:11.310Z,60.44
2019-02-20T19:48:51.445Z,60.36
2019-02-20T19:51:57.784Z,60.41
2019-02-20T19:54:34.872Z,60.32
2019-02-20T19:57:11.825Z,59.85
2019-02-20T20:00:02.890Z,59.98
2019-02-20T20:02:46.479Z,60.37
2019-02-20T20:05:27.110Z,60.19
2019-02-20T20:08:01.581Z,60.11
2019-02-20T20:10:44.909Z,59.90
2019-02-20T20:13:27.878Z,60.24
2019-02-20T20:16:08.085Z,60.06
2019-02-20T20:18:42.387Z,60.18
2019-02-20T20:21:25.074Z,60.25
2019-02-20T20:24:26.875Z,60.18
2019-02-20T20:27:14.759Z,60.11
2019-02-20T20:30:01.298Z,60.00
2019-02-20T20:32:38.630Z,60.11
2019-02-20T20:35:38.932Z,60.08
2019-02-20T20:38:30.121Z,60.30
2019-02-20T20:41:10.179Z,60.25
2019-02-20T20:43:44.405Z,60.39
2019-02-20T20:46:18.879Z,60.43
2019-02-20T20:49:02.248Z,60.50
2019-02-20T20:51:53.443Z,60.59
2019-02-20T20:54:27.696Z,60.61
2019-02-20T20:57:15.684Z,60.42
2019-02-20T21:00:12.980Z,60.55
2019-02-20T21:02:44.112Z,60.49
2019-02-20T21:05:36.802Z,60.57
2019-02-20T21:08:13.953Z,60.79
2019-02-20T21:11:05.160Z,60.60
2019-02-20T21:13:54.668Z,60.67
2019-02-20T21:16:50.266Z,60.66
2019-02-20T21:19:45.711Z,60.71
2019-02-20T21:22:31.907Z,60.91
2019-02-20T21:25:29.280Z,60.74
2019-02-20T21:28:09.786Z,60.81
2019-02-20T21:30:56.165Z,60.79
2019-02-20T21:33:30.400Z,60.95
2019-02-20T21:36:04.761Z,60.99
2019-02-20T21:38:51.110Z,61.16
2019-02-20T21:41:28.583Z,61.06
2019-02-20T21:44:16.147Z,61.13
2019-02-20T21:47:10.301Z,61.06
2019-02-20T21:49:41.744Z,60.92
2019-02-20T21:52:28.264Z,60.92
2019-02-20T21:55:02.575Z,61.32
2019-02-20T21:57:50.665Z,61.18
2019-02-20T22:00:27.650Z,61.44
2019-02-20T22:03:18.660Z,61.43
2019-02-20T22:05:50.121Z,61.41
2019-02-20T22:08:42.517Z,61.41
2019-02-20T22:11:16.633Z,61.65
2019-02-20T22:14:04.545Z,61.58
2019-02-20T22:16:59.605Z,61.72
2019-02-20T22:19:59.584Z,61.62
2019-02-20T22:22:59.815Z,61.68
2019-02-20T22:25:55.170Z,61.60
2019-02-20T22:28:41.730Z,61.75
2019-02-20T22:31:29.679Z,61.76
2019-02-20T22:34:09.931Z,61.81
2019-02-20T22:37:02.580Z,61.95
2019-02-20T22:39:34.041Z,62.10
2019-02-20T22:42:11.539Z,62.16
2019-02-20T22:45:16.387Z,62.30
2019-02-20T22:48:15.035Z,62.31
2019-02-20T22:50:46.513Z,62.08
2019-02-20T22:53:20.645Z,62.07
2019-02-20T22:55:57.579Z,62.34
2019-02-20T22:58:37.876Z,62.57
2019-02-20T23:01:15.190Z,62.48
2019-02-20T23:04:07.567Z,62.41
2019-02-20T23:06:44.693Z,62.55
2019-02-20T23:09:18.858Z,62.46
2019-02-20T23:12:11.438Z,62.38
2019-02-20T23:14:53.005Z,62.47
2019-02-20T23:17:21.225Z,62.37
2019-02-20T23:19:49.448Z,62.54
2019-02-20T23:22:17.674Z,62.62
2019-02-20T23:24:45.889Z,62.61
2019-02-20T23:27:14.099Z,62.63
2019-02-20T23:29:42.300Z,62.57
2019-02-20T23:32:10.516Z,62.60
2019-02-20T23:34:38.720Z,62.72
2019-02-20T23:37:06.934Z,62.72
2019-02-20T23:39:35.116Z,62.73
2019-02-20T23:42:03.369Z,62.77
2019-02-20T23:44:31.600Z,62.69
2019-02-20T23:46:59.797Z,62.68
2019-02-20T23:49:28.016Z,62.75
2019-02-20T23:51:56.215Z,62.69
2019-02-20T23:54:24.423Z,62.79
2019-02-20T23:56:52.616Z,62.88
2019-02-20T23:59:20.823Z,62.83
